WMT3685 LIBP-LATI
Flight info
| Callsign | WMT3685 |
|---|---|
| Flight time | 0h 42m |
| Altitude | 29000 |
| Route | ERPOG DCT GARGA DCT VAKSU DCT PETAK |
| Aircraft | A321/M-SDE1E2E3FGIJ1J4RWXY/LB1 |
Departure
| Time | 2026-04-21 13:52 |
|---|---|
| Airport | Abruzzo Airport (LIBP) |
Arrival
| Time | 2026-04-21 14:34 |
|---|---|
| Airport | Tirana International Airport Mother Teresa (LATI) |
| Time | Latitude | Longitude | Altitude | Speed | Heading |
|---|---|---|---|---|---|
| 2026-04-21 13:18 | 42.43093 | 14.18787 | 48 ft | 0 kts | 128° |
| 2026-04-21 13:42 | 42.43108 | 14.18762 | 46 ft | 4 kts | 128° |
| 2026-04-21 13:42 | 42.43125 | 14.18737 | 46 ft | 4 kts | 161° |
| 2026-04-21 13:43 | 42.43137 | 14.18735 | 46 ft | 0 kts | 218° |
| 2026-04-21 13:47 | 42.43131 | 14.18729 | 47 ft | 3 kts | 218° |
| 2026-04-21 13:47 | 42.43109 | 14.18707 | 47 ft | 5 kts | 217° |
| 2026-04-21 13:47 | 42.43082 | 14.18678 | 47 ft | 7 kts | 217° |
| 2026-04-21 13:48 | 42.43041 | 14.18636 | 46 ft | 8 kts | 217° |
| 2026-04-21 13:48 | 42.43021 | 14.18562 | 48 ft | 9 kts | 261° |
| 2026-04-21 13:48 | 42.43005 | 14.18469 | 48 ft | 11 kts | 242° |
| 2026-04-21 13:48 | 42.42945 | 14.18397 | 48 ft | 12 kts | 217° |
| 2026-04-21 13:49 | 42.42873 | 14.18323 | 48 ft | 14 kts | 217° |
| 2026-04-21 13:49 | 42.42793 | 14.18240 | 48 ft | 15 kts | 217° |
| 2026-04-21 13:49 | 42.42706 | 14.18151 | 48 ft | 16 kts | 217° |
| 2026-04-21 13:49 | 42.42613 | 14.18054 | 45 ft | 18 kts | 217° |
| 2026-04-21 13:50 | 42.42512 | 14.17950 | 46 ft | 19 kts | 217° |
| 2026-04-21 13:50 | 42.42405 | 14.17839 | 48 ft | 20 kts | 217° |
| 2026-04-21 13:50 | 42.42298 | 14.17728 | 48 ft | 17 kts | 217° |
| 2026-04-21 13:50 | 42.42270 | 14.17601 | 48 ft | 12 kts | 265° |
| 2026-04-21 13:51 | 42.42285 | 14.17488 | 47 ft | 13 kts | 319° |
| 2026-04-21 13:51 | 42.42369 | 14.17511 | 47 ft | 14 kts | 37° |
| 2026-04-21 13:51 | 42.42508 | 14.17655 | 49 ft | 53 kts | 38° |
| 2026-04-21 13:51 | 42.42999 | 14.18165 | 45 ft | 123 kts | 37° |
| 2026-04-21 13:52 | 42.43789 | 14.18990 | 239 ft | 157 kts | 40° |
| 2026-04-21 13:52 | 42.44644 | 14.19896 | 927 ft | 156 kts | 41° |
| 2026-04-21 13:52 | 42.45524 | 14.20812 | 1516 ft | 164 kts | 39° |
| 2026-04-21 13:52 | 42.46495 | 14.21815 | 1879 ft | 186 kts | 37° |
| 2026-04-21 13:53 | 42.47571 | 14.22927 | 2173 ft | 208 kts | 38° |
| 2026-04-21 13:53 | 42.48695 | 14.24376 | 2439 ft | 234 kts | 58° |
| 2026-04-21 13:53 | 42.49148 | 14.26526 | 2925 ft | 252 kts | 89° |
| 2026-04-21 13:53 | 42.49079 | 14.28935 | 3642 ft | 260 kts | 91° |
| 2026-04-21 13:54 | 42.49041 | 14.31456 | 4374 ft | 268 kts | 91° |
| 2026-04-21 13:54 | 42.49023 | 14.33990 | 5053 ft | 277 kts | 90° |
| 2026-04-21 13:54 | 42.49007 | 14.36628 | 5812 ft | 282 kts | 90° |
| 2026-04-21 13:54 | 42.48988 | 14.39311 | 6535 ft | 288 kts | 90° |
| 2026-04-21 13:55 | 42.48966 | 14.42051 | 7246 ft | 294 kts | 90° |
| 2026-04-21 13:55 | 42.48939 | 14.44850 | 7964 ft | 299 kts | 90° |
| 2026-04-21 13:55 | 42.48908 | 14.47688 | 8723 ft | 305 kts | 90° |
| 2026-04-21 13:55 | 42.48875 | 14.50581 | 9485 ft | 310 kts | 90° |
| 2026-04-21 13:56 | 42.48840 | 14.53531 | 10193 ft | 318 kts | 90° |
| 2026-04-21 13:56 | 42.48804 | 14.56633 | 10464 ft | 341 kts | 90° |
| 2026-04-21 13:56 | 42.48765 | 14.59951 | 10718 ft | 360 kts | 90° |
| 2026-04-21 13:56 | 42.48724 | 14.63383 | 11292 ft | 368 kts | 90° |
| 2026-04-21 13:57 | 42.48679 | 14.66866 | 11979 ft | 372 kts | 90° |
| 2026-04-21 13:57 | 42.48628 | 14.70385 | 12655 ft | 376 kts | 90° |
| 2026-04-21 13:57 | 42.48575 | 14.73945 | 13326 ft | 380 kts | 90° |
| 2026-04-21 13:57 | 42.48522 | 14.77548 | 13987 ft | 385 kts | 90° |
| 2026-04-21 13:58 | 42.48470 | 14.81193 | 14595 ft | 390 kts | 90° |
| 2026-04-21 13:58 | 42.48417 | 14.84882 | 15207 ft | 394 kts | 89° |
| 2026-04-21 13:58 | 42.48363 | 14.88612 | 15810 ft | 398 kts | 89° |
| 2026-04-21 13:58 | 42.48306 | 14.92384 | 16453 ft | 403 kts | 89° |
| 2026-04-21 13:59 | 42.48247 | 14.96197 | 17045 ft | 407 kts | 89° |
| 2026-04-21 13:59 | 42.48186 | 15.00053 | 17629 ft | 412 kts | 89° |
| 2026-04-21 13:59 | 42.48123 | 15.03957 | 18205 ft | 416 kts | 89° |
| 2026-04-21 13:59 | 42.48058 | 15.07893 | 18711 ft | 420 kts | 89° |
| 2026-04-21 14:00 | 42.47988 | 15.11862 | 19244 ft | 424 kts | 89° |
| 2026-04-21 14:00 | 42.47827 | 15.15865 | 19772 ft | 429 kts | 97° |
| 2026-04-21 14:00 | 42.47358 | 15.19876 | 20297 ft | 432 kts | 98° |
| 2026-04-21 14:00 | 42.46870 | 15.23899 | 20822 ft | 436 kts | 98° |
| 2026-04-21 14:01 | 42.46366 | 15.27961 | 21353 ft | 439 kts | 98° |
| 2026-04-21 14:01 | 42.45854 | 15.32063 | 21925 ft | 443 kts | 99° |
| 2026-04-21 14:01 | 42.45337 | 15.36179 | 22466 ft | 446 kts | 99° |
| 2026-04-21 14:01 | 42.44818 | 15.40333 | 22968 ft | 449 kts | 99° |
| 2026-04-21 14:02 | 42.44296 | 15.44523 | 23483 ft | 453 kts | 99° |
| 2026-04-21 14:02 | 42.43769 | 15.48751 | 23905 ft | 456 kts | 99° |
| 2026-04-21 14:02 | 42.43237 | 15.52996 | 24294 ft | 460 kts | 99° |
| 2026-04-21 14:03 | 42.42156 | 15.61595 | 25058 ft | 466 kts | 98° |
| 2026-04-21 14:03 | 42.41607 | 15.65937 | 25432 ft | 470 kts | 98° |
| 2026-04-21 14:03 | 42.41052 | 15.70315 | 25763 ft | 474 kts | 98° |
| 2026-04-21 14:03 | 42.40489 | 15.74727 | 26123 ft | 478 kts | 98° |
| 2026-04-21 14:04 | 42.39918 | 15.79168 | 26490 ft | 481 kts | 98° |
| 2026-04-21 14:04 | 42.39344 | 15.83633 | 26853 ft | 484 kts | 98° |
| 2026-04-21 14:04 | 42.38772 | 15.88073 | 27210 ft | 487 kts | 98° |
| 2026-04-21 14:04 | 42.38183 | 15.92650 | 27568 ft | 490 kts | 98° |
| 2026-04-21 14:05 | 42.37594 | 15.97199 | 27922 ft | 493 kts | 98° |
| 2026-04-21 14:05 | 42.36999 | 16.01775 | 28275 ft | 495 kts | 98° |
| 2026-04-21 14:05 | 42.36400 | 16.06376 | 28628 ft | 498 kts | 98° |
| 2026-04-21 14:05 | 42.35803 | 16.10945 | 28906 ft | 501 kts | 98° |
| 2026-04-21 14:06 | 42.35199 | 16.15544 | 28959 ft | 490 kts | 98° |
| 2026-04-21 14:06 | 42.34016 | 16.24478 | 28956 ft | 480 kts | 98° |
| 2026-04-21 14:07 | 42.32843 | 16.33333 | 28956 ft | 478 kts | 98° |
| 2026-04-21 14:07 | 42.31666 | 16.42161 | 28956 ft | 476 kts | 98° |
| 2026-04-21 14:08 | 42.30481 | 16.50965 | 28953 ft | 476 kts | 99° |
| 2026-04-21 14:08 | 42.29291 | 16.59764 | 28954 ft | 476 kts | 99° |
| 2026-04-21 14:09 | 42.28097 | 16.68563 | 28954 ft | 476 kts | 99° |
| 2026-04-21 14:09 | 42.26900 | 16.77352 | 28960 ft | 476 kts | 99° |
| 2026-04-21 14:10 | 42.25694 | 16.86132 | 28964 ft | 476 kts | 99° |
| 2026-04-21 14:10 | 42.24484 | 16.94902 | 28960 ft | 475 kts | 99° |
| 2026-04-21 14:11 | 42.23263 | 17.03666 | 28956 ft | 475 kts | 99° |
| 2026-04-21 14:11 | 42.21948 | 17.12404 | 28965 ft | 475 kts | 102° |
| 2026-04-21 14:12 | 42.20186 | 17.20992 | 28965 ft | 475 kts | 106° |
| 2026-04-21 14:12 | 42.18249 | 17.29490 | 28959 ft | 474 kts | 106° |
| 2026-04-21 14:13 | 42.16376 | 17.38021 | 28947 ft | 474 kts | 105° |
| 2026-04-21 14:13 | 42.14582 | 17.46559 | 28953 ft | 473 kts | 104° |
| 2026-04-21 14:14 | 42.12790 | 17.55080 | 28952 ft | 472 kts | 105° |
| 2026-04-21 14:14 | 42.10979 | 17.63582 | 28952 ft | 472 kts | 105° |
| 2026-04-21 14:15 | 42.09158 | 17.72077 | 28946 ft | 472 kts | 105° |
| 2026-04-21 14:15 | 42.07327 | 17.80554 | 28940 ft | 472 kts | 105° |
| 2026-04-21 14:15 | 42.06399 | 17.84838 | 28952 ft | 483 kts | 105° |
| 2026-04-21 14:16 | 42.05451 | 17.89219 | 28949 ft | 491 kts | 105° |
| 2026-04-21 14:16 | 42.03544 | 17.98027 | 28948 ft | 494 kts | 105° |
| 2026-04-21 14:17 | 42.01612 | 18.06903 | 28949 ft | 495 kts | 105° |
| 2026-04-21 14:17 | 41.99671 | 18.15776 | 28948 ft | 495 kts | 105° |
| 2026-04-21 14:18 | 41.97719 | 18.24639 | 28945 ft | 495 kts | 105° |
| 2026-04-21 14:18 | 41.95763 | 18.33494 | 28942 ft | 494 kts | 105° |
| 2026-04-21 14:19 | 41.93826 | 18.42215 | 27901 ft | 476 kts | 106° |
| 2026-04-21 14:19 | 41.92890 | 18.46431 | 26833 ft | 466 kts | 106° |
| 2026-04-21 14:19 | 41.91972 | 18.50564 | 25796 ft | 457 kts | 106° |
| 2026-04-21 14:19 | 41.91068 | 18.54620 | 24776 ft | 450 kts | 106° |
| 2026-04-21 14:20 | 41.90176 | 18.58606 | 23808 ft | 442 kts | 107° |
| 2026-04-21 14:20 | 41.89296 | 18.62538 | 22699 ft | 437 kts | 106° |
| 2026-04-21 14:20 | 41.88430 | 18.66415 | 21662 ft | 430 kts | 106° |
| 2026-04-21 14:20 | 41.87579 | 18.70224 | 20686 ft | 422 kts | 107° |
| 2026-04-21 14:21 | 41.86739 | 18.73959 | 19721 ft | 414 kts | 107° |
| 2026-04-21 14:21 | 41.85911 | 18.77619 | 18784 ft | 406 kts | 107° |
| 2026-04-21 14:21 | 41.85095 | 18.81212 | 17786 ft | 399 kts | 107° |
| 2026-04-21 14:21 | 41.84291 | 18.84745 | 16718 ft | 393 kts | 107° |
| 2026-04-21 14:22 | 41.83503 | 18.88219 | 15716 ft | 386 kts | 108° |
| 2026-04-21 14:22 | 41.82729 | 18.91634 | 14724 ft | 380 kts | 108° |
| 2026-04-21 14:22 | 41.81971 | 18.94984 | 13992 ft | 368 kts | 108° |
| 2026-04-21 14:22 | 41.81252 | 18.98161 | 13619 ft | 346 kts | 108° |
| 2026-04-21 14:23 | 41.80568 | 19.01169 | 13194 ft | 329 kts | 108° |
| 2026-04-21 14:23 | 41.79913 | 19.04035 | 12806 ft | 320 kts | 108° |
| 2026-04-21 14:23 | 41.79255 | 19.06897 | 12412 ft | 322 kts | 108° |
| 2026-04-21 14:23 | 41.78596 | 19.09757 | 12019 ft | 321 kts | 108° |
| 2026-04-21 14:24 | 41.77943 | 19.12605 | 11627 ft | 319 kts | 108° |
| 2026-04-21 14:24 | 41.77296 | 19.15428 | 11237 ft | 316 kts | 108° |
| 2026-04-21 14:24 | 41.76662 | 19.18194 | 10855 ft | 313 kts | 108° |
| 2026-04-21 14:24 | 41.76026 | 19.20970 | 10472 ft | 311 kts | 108° |
| 2026-04-21 14:25 | 41.75391 | 19.23727 | 10104 ft | 309 kts | 108° |
| 2026-04-21 14:25 | 41.74750 | 19.26497 | 10006 ft | 314 kts | 108° |
| 2026-04-21 14:25 | 41.74102 | 19.29299 | 9716 ft | 316 kts | 108° |
| 2026-04-21 14:25 | 41.73459 | 19.32082 | 9132 ft | 309 kts | 108° |
| 2026-04-21 14:26 | 41.72821 | 19.34845 | 8674 ft | 311 kts | 108° |
| 2026-04-21 14:26 | 41.72183 | 19.37595 | 8300 ft | 309 kts | 108° |
| 2026-04-21 14:26 | 41.71544 | 19.40341 | 7955 ft | 306 kts | 108° |
| 2026-04-21 14:26 | 41.70914 | 19.43045 | 7581 ft | 304 kts | 108° |
| 2026-04-21 14:27 | 41.70290 | 19.45729 | 7106 ft | 300 kts | 108° |
| 2026-04-21 14:27 | 41.69882 | 19.47485 | 6737 ft | 297 kts | 109° |
| 2026-04-21 14:27 | 41.69271 | 19.50106 | 6276 ft | 293 kts | 107° |
| 2026-04-21 14:27 | 41.68664 | 19.52709 | 6012 ft | 294 kts | 104° |
| 2026-04-21 14:28 | 41.68049 | 19.55362 | 5902 ft | 304 kts | 108° |
| 2026-04-21 14:28 | 41.67421 | 19.58087 | 5393 ft | 310 kts | 110° |
| 2026-04-21 14:28 | 41.66783 | 19.60830 | 4728 ft | 305 kts | 106° |
| 2026-04-21 14:28 | 41.66143 | 19.63458 | 4567 ft | 291 kts | 111° |
| 2026-04-21 14:29 | 41.65165 | 19.65796 | 4460 ft | 287 kts | 133° |
| 2026-04-21 14:29 | 41.63787 | 19.67658 | 4232 ft | 276 kts | 147° |
| 2026-04-21 14:29 | 41.62178 | 19.68904 | 3923 ft | 258 kts | 161° |
| 2026-04-21 14:29 | 41.60526 | 19.69510 | 3617 ft | 235 kts | 176° |
| 2026-04-21 14:30 | 41.58922 | 19.69729 | 3355 ft | 228 kts | 178° |
| 2026-04-21 14:30 | 41.57365 | 19.69939 | 3032 ft | 222 kts | 178° |
| 2026-04-21 14:30 | 41.55849 | 19.70142 | 2730 ft | 216 kts | 178° |
| 2026-04-21 14:30 | 41.54399 | 19.70337 | 2464 ft | 202 kts | 178° |
| 2026-04-21 14:31 | 41.53058 | 19.70517 | 2178 ft | 185 kts | 178° |
| 2026-04-21 14:31 | 41.51850 | 19.70679 | 1962 ft | 163 kts | 178° |
| 2026-04-21 14:31 | 41.50767 | 19.70823 | 1748 ft | 148 kts | 178° |
| 2026-04-21 14:31 | 41.49776 | 19.70954 | 1533 ft | 140 kts | 179° |
| 2026-04-21 14:32 | 41.48821 | 19.71080 | 1360 ft | 137 kts | 178° |
| 2026-04-21 14:32 | 41.47884 | 19.71204 | 1159 ft | 135 kts | 178° |
| 2026-04-21 14:32 | 41.46946 | 19.71329 | 982 ft | 136 kts | 178° |
| 2026-04-21 14:32 | 41.46006 | 19.71454 | 802 ft | 135 kts | 178° |
| 2026-04-21 14:33 | 41.45076 | 19.71577 | 630 ft | 133 kts | 178° |
| 2026-04-21 14:33 | 41.44152 | 19.71700 | 426 ft | 134 kts | 176° |
| 2026-04-21 14:33 | 41.43209 | 19.71832 | 279 ft | 138 kts | 175° |
| 2026-04-21 14:33 | 41.42261 | 19.71951 | 119 ft | 129 kts | 176° |
| 2026-04-21 14:34 | 41.41517 | 19.72051 | 126 ft | 83 kts | 174° |
| 2026-04-21 14:34 | 41.41107 | 19.72106 | 132 ft | 43 kts | 174° |
| 2026-04-21 14:34 | 41.40841 | 19.72142 | 133 ft | 29 kts | 174° |
| 2026-04-21 14:34 | 41.40699 | 19.72146 | 134 ft | 14 kts | 213° |
| 2026-04-21 14:35 | 41.40666 | 19.72017 | 132 ft | 15 kts | 257° |
| 2026-04-21 14:35 | 41.40641 | 19.71876 | 132 ft | 15 kts | 257° |
| 2026-04-21 14:35 | 41.40658 | 19.71775 | 132 ft | 13 kts | 338° |
| 2026-04-21 14:35 | 41.40752 | 19.71761 | 132 ft | 15 kts | 355° |
| 2026-04-21 14:36 | 41.40859 | 19.71737 | 131 ft | 16 kts | 347° |
| 2026-04-21 14:36 | 41.40978 | 19.71711 | 128 ft | 18 kts | 353° |
| 2026-04-21 14:36 | 41.41110 | 19.71693 | 130 ft | 19 kts | 354° |
| 2026-04-21 14:36 | 41.41234 | 19.71677 | 128 ft | 16 kts | 354° |
| 2026-04-21 14:37 | 41.41355 | 19.71661 | 127 ft | 18 kts | 354° |
| 2026-04-21 14:37 | 41.41487 | 19.71643 | 126 ft | 20 kts | 354° |
| 2026-04-21 14:37 | 41.41636 | 19.71623 | 126 ft | 22 kts | 354° |
| 2026-04-21 14:37 | 41.41755 | 19.71607 | 124 ft | 14 kts | 354° |
| 2026-04-21 14:38 | 41.41832 | 19.71595 | 122 ft | 6 kts | 344° |
| 2026-04-21 14:38 | 41.41833 | 19.71560 | 123 ft | 4 kts | 262° |
| 2026-04-21 14:38 | 41.41832 | 19.71534 | 124 ft | 0 kts | 264° |